Main page
METAR-TAF:

METAR-TAF

Airports :

Kolding Lufthavn

Kolding, Denmark

latitude: 55-26N, longitude: 009-20E, elevation: 44 m

Current weather observation

The report was made 41 minutes ago, at 00:50 UTC
Wind 6 kt from the East
Temperature 3°C
Humidity 93%
Pressure 1004 hPa

METAR: EKVD 250050Z AUTO 08006KT //// ///////// 03/02 Q1004

Time: 03:31 (01:31 UTC)

Forecast

The report was made 13 hours and 58 minutes ago, at 11:33 UTC
Forecast valid from 24 at 12 UTC to 24 at 16 UTC
Wind 8 kt from the East
Visibility 10 km or more
Broken clouds at a height of 3000 ft
Temporary
from 24 at 12 UTC to 24 at 16 UTC
Scattered clouds at a height of 2000 ft, Cumulonimbus.
rain showers,

TAF: EKVD 241133Z 2412/2416 08008KT 9999 BKN030 TEMPO 2412/2416 SHRA SCT020CB

Weather observations and forecasts of more than 4000 airports (METAR and TAF reports).

The available stations are represented by yellow and red dots on the map.

Hover mouse over dot to see the name of the station.

Then click to see weather observations and forecasts.

To change the map : click on the green buttons with a black cross to zoom in, on the green button with a dash to zoom out, or on the green arrows for adjacent maps.


METAR-TAF: